createdAt,value
2023-08-05T00:00:25.104Z,10.57
2023-08-05T00:01:56.731Z,11.55
2023-08-05T00:03:28.502Z,12.32
2023-08-05T00:05:00.219Z,13.85
2023-08-05T00:06:31.817Z,10.65
2023-08-05T00:08:03.498Z,13.10
2023-08-05T00:09:35.063Z,11.90
2023-08-05T00:11:06.718Z,11.93
2023-08-05T00:12:38.350Z,12.30
2023-08-05T00:14:09.940Z,10.13
2023-08-05T00:15:41.628Z,10.95
2023-08-05T00:17:13.261Z,13.80
2023-08-05T00:18:45.035Z,10.45
2023-08-05T00:20:16.753Z,15.00
2023-08-05T00:21:48.425Z,12.18
2023-08-05T00:23:20.693Z,13.63
2023-08-05T00:24:52.340Z,9.25
2023-08-05T00:26:23.949Z,12.10
2023-08-05T00:27:55.611Z,11.35
2023-08-05T00:29:27.174Z,11.07
2023-08-05T00:30:59.045Z,11.05
2023-08-05T00:32:31.332Z,13.95
2023-08-05T00:34:02.997Z,13.80
2023-08-05T00:35:34.690Z,12.25
2023-08-05T00:37:06.525Z,11.38
2023-08-05T00:38:38.181Z,10.70
2023-08-05T00:40:10.437Z,11.15
2023-08-05T00:41:42.088Z,11.45
2023-08-05T00:43:13.756Z,13.07
2023-08-05T00:44:46.126Z,13.70
2023-08-05T00:46:23.753Z,15.65
2023-08-05T00:47:56.507Z,14.63
2023-08-05T00:49:28.258Z,17.63
2023-08-05T00:51:00.955Z,10.27
2023-08-05T00:52:32.877Z,13.75
2023-08-05T00:54:05.052Z,10.82
2023-08-05T00:55:37.622Z,12.25
2023-08-05T00:57:11.659Z,11.02
2023-08-05T00:58:44.699Z,12.10
2023-08-05T01:00:16.382Z,11.68
2023-08-05T01:01:48.077Z,13.25
2023-08-05T01:03:19.803Z,10.93
2023-08-05T01:04:51.464Z,10.93
2023-08-05T01:06:25.080Z,10.80
2023-08-05T01:07:57.462Z,13.63
2023-08-05T01:09:29.196Z,12.75
2023-08-05T01:11:04.604Z,13.13
2023-08-05T01:12:36.238Z,11.00
2023-08-05T01:14:07.869Z,13.32
2023-08-05T01:15:40.250Z,10.85
2023-08-05T01:17:11.900Z,10.63
2023-08-05T01:18:44.265Z,10.90
2023-08-05T01:20:18.201Z,9.82
2023-08-05T01:22:18.926Z,11.15
2023-08-05T01:24:11.509Z,9.50
2023-08-05T01:25:43.723Z,8.60
2023-08-05T01:27:15.493Z,9.68
2023-08-05T01:28:47.287Z,12.07
2023-08-05T01:30:19.157Z,11.63
2023-08-05T01:31:52.280Z,10.18
2023-08-05T01:33:25.022Z,11.73
2023-08-05T01:34:58.110Z,9.75
2023-08-05T01:36:30.864Z,13.02
2023-08-05T01:38:02.454Z,9.63
2023-08-05T01:39:34.066Z,10.93
2023-08-05T01:41:05.682Z,9.02
2023-08-05T01:42:38.273Z,10.60
2023-08-05T01:44:09.862Z,10.10
2023-08-05T01:45:41.566Z,9.85
2023-08-05T01:47:13.086Z,10.25
2023-08-05T01:48:44.674Z,10.95
2023-08-05T01:50:16.384Z,10.77
2023-08-05T01:51:48.802Z,10.80
2023-08-05T01:53:20.341Z,10.52
2023-08-05T01:54:52.690Z,8.95
2023-08-05T01:56:24.234Z,9.88
2023-08-05T01:57:55.776Z,12.68
2023-08-05T01:59:27.429Z,9.70
2023-08-05T02:00:59.426Z,9.98
2023-08-05T02:02:31.184Z,8.48
2023-08-05T02:04:03.200Z,9.00
2023-08-05T02:05:34.825Z,11.32
2023-08-05T02:07:07.003Z,13.70
2023-08-05T02:08:38.551Z,12.07
2023-08-05T02:10:10.283Z,11.10
2023-08-05T02:11:41.872Z,12.63
2023-08-05T02:13:13.476Z,10.55
2023-08-05T02:14:45.077Z,12.25
2023-08-05T02:16:16.657Z,11.02
2023-08-05T02:17:48.509Z,12.32
2023-08-05T02:19:20.128Z,11.82
2023-08-05T02:20:52.964Z,11.07
2023-08-05T02:22:24.484Z,11.73
2023-08-05T02:23:56.198Z,10.77
2023-08-05T02:25:27.792Z,13.07
2023-08-05T02:26:59.402Z,11.55
2023-08-05T02:28:30.951Z,9.57
2023-08-05T02:30:02.563Z,12.48
2023-08-05T02:31:34.431Z,9.55
2023-08-05T02:33:06.032Z,12.82
2023-08-05T02:34:37.725Z,11.00
2023-08-05T02:36:09.580Z,13.02
2023-08-05T02:37:41.226Z,11.23
2023-08-05T02:39:13.306Z,11.95
2023-08-05T02:40:45.899Z,13.40
2023-08-05T02:42:17.461Z,12.80
2023-08-05T02:43:49.092Z,9.88
2023-08-05T02:45:20.803Z,10.48
2023-08-05T02:46:52.759Z,13.15
2023-08-05T02:48:25.814Z,11.85
2023-08-05T02:49:57.649Z,12.68
2023-08-05T02:51:29.711Z,11.43
2023-08-05T02:53:01.244Z,13.40
2023-08-05T02:54:32.870Z,11.88
2023-08-05T02:56:04.587Z,9.00
2023-08-05T02:57:36.162Z,12.82
2023-08-05T02:59:07.746Z,16.60
2023-08-05T03:00:39.392Z,14.50
2023-08-05T03:02:11.016Z,12.38
2023-08-05T03:03:42.662Z,10.02
2023-08-05T03:05:14.978Z,13.57
2023-08-05T03:06:46.722Z,9.45
2023-08-05T03:08:18.409Z,8.98
2023-08-05T03:09:50.130Z,17.48
2023-08-05T03:11:22.633Z,10.13
2023-08-05T03:12:54.225Z,14.63
2023-08-05T03:14:25.831Z,10.90
2023-08-05T03:15:57.494Z,10.68
2023-08-05T03:17:29.812Z,12.13
2023-08-05T03:19:01.423Z,11.38
2023-08-05T03:20:35.798Z,13.05
2023-08-05T03:22:15.724Z,9.60
2023-08-05T03:23:49.336Z,12.05
2023-08-05T03:25:22.933Z,14.07
2023-08-05T03:26:57.996Z,13.20
2023-08-05T03:28:29.660Z,12.65
2023-08-05T03:30:01.859Z,11.52
2023-08-05T03:31:33.939Z,9.50
2023-08-05T03:33:08.154Z,9.55
2023-08-05T03:34:40.714Z,11.27
2023-08-05T03:36:12.587Z,10.77
2023-08-05T03:37:46.124Z,10.90
2023-08-05T03:39:18.982Z,9.27
2023-08-05T03:40:51.390Z,9.80
2023-08-05T03:42:23.279Z,9.57
2023-08-05T03:43:54.919Z,12.18
2023-08-05T03:45:26.636Z,16.85
2023-08-05T03:46:58.945Z,12.35
2023-08-05T03:48:30.660Z,10.50
2023-08-05T03:50:02.332Z,10.23
2023-08-05T03:51:33.993Z,9.48
2023-08-05T03:53:09.891Z,10.50
2023-08-05T03:54:41.692Z,9.02
2023-08-05T03:56:14.718Z,8.23
2023-08-05T03:57:48.205Z,10.77
2023-08-05T03:59:21.579Z,8.70
2023-08-05T04:00:54.147Z,8.57
2023-08-05T04:02:26.322Z,12.77
2023-08-05T04:03:57.998Z,10.88
2023-08-05T04:05:30.337Z,13.02
2023-08-05T04:07:01.927Z,11.63
2023-08-05T04:08:33.467Z,10.32
2023-08-05T04:10:07.383Z,13.13
2023-08-05T04:11:39.109Z,12.90
2023-08-05T04:13:12.804Z,13.93
2023-08-05T04:14:45.431Z,8.80
2023-08-05T04:16:17.737Z,10.40
2023-08-05T04:17:49.902Z,15.35
2023-08-05T04:19:23.484Z,10.27
2023-08-05T04:20:56.601Z,16.35
2023-08-05T04:22:28.292Z,9.65
2023-08-05T04:24:02.281Z,12.43
2023-08-05T04:25:34.041Z,13.35
2023-08-05T04:27:05.865Z,10.43
2023-08-05T04:28:37.472Z,9.10
2023-08-05T04:30:09.466Z,8.85
2023-08-05T04:31:43.634Z,11.18
2023-08-05T04:33:15.570Z,14.57
2023-08-05T04:34:47.245Z,11.77
2023-08-05T04:36:18.781Z,16.52
2023-08-05T04:37:50.363Z,10.55
2023-08-05T04:39:22.787Z,9.95
2023-08-05T04:40:54.443Z,13.20
2023-08-05T04:42:25.988Z,10.27
2023-08-05T04:44:00.256Z,14.13
2023-08-05T04:45:31.766Z,15.75
2023-08-05T04:47:03.504Z,10.40
2023-08-05T04:48:35.069Z,11.40
2023-08-05T04:50:07.109Z,8.77
2023-08-05T04:51:38.976Z,9.23
2023-08-05T04:53:10.593Z,11.10
2023-08-05T04:54:44.621Z,10.52
2023-08-05T04:56:17.560Z,11.27
2023-08-05T04:57:56.139Z,10.30
2023-08-05T04:59:27.717Z,10.52
2023-08-05T05:00:59.440Z,12.57
2023-08-05T05:02:31.125Z,11.43
2023-08-05T05:04:03.098Z,13.20
2023-08-05T05:05:36.592Z,11.48
2023-08-05T05:07:08.220Z,11.15
2023-08-05T05:08:39.845Z,10.80
2023-08-05T05:10:11.409Z,10.88
2023-08-05T05:11:43.111Z,11.43
2023-08-05T05:13:15.010Z,13.77
2023-08-05T05:14:47.729Z,9.73
2023-08-05T05:16:19.654Z,10.63
2023-08-05T05:17:51.916Z,11.75
2023-08-05T05:19:23.616Z,15.07
2023-08-05T05:20:55.878Z,10.10
2023-08-05T05:22:27.504Z,10.07
2023-08-05T05:23:59.096Z,9.43
2023-08-05T05:25:30.640Z,9.88
2023-08-05T05:27:02.517Z,10.73
2023-08-05T05:28:34.114Z,10.82
2023-08-05T05:30:06.164Z,13.05
2023-08-05T05:31:37.916Z,10.43
2023-08-05T05:33:09.661Z,13.35
2023-08-05T05:34:41.280Z,11.00
2023-08-05T05:36:12.890Z,10.75
2023-08-05T05:37:44.435Z,10.63
2023-08-05T05:39:16.100Z,11.57
2023-08-05T05:40:47.691Z,9.35
2023-08-05T05:42:19.298Z,12.48
2023-08-05T05:43:50.884Z,12.27
2023-08-05T05:45:22.608Z,7.30
2023-08-05T05:46:54.691Z,11.13
2023-08-05T05:48:26.510Z,12.50
2023-08-05T05:49:58.123Z,9.18
2023-08-05T05:51:29.866Z,11.15
2023-08-05T05:53:01.444Z,10.50
2023-08-05T05:54:33.034Z,11.10
2023-08-05T05:56:06.175Z,10.80
2023-08-05T05:57:38.140Z,9.27
2023-08-05T05:59:09.697Z,12.05
2023-08-05T06:00:41.376Z,13.75
2023-08-05T06:02:13.055Z,14.23
2023-08-05T06:03:44.760Z,11.48
2023-08-05T06:05:16.415Z,10.50
2023-08-05T06:06:49.821Z,17.33
2023-08-05T06:08:21.793Z,9.75
2023-08-05T06:09:53.467Z,10.93
2023-08-05T06:11:25.197Z,9.63
2023-08-05T06:12:58.124Z,8.15
2023-08-05T06:14:30.681Z,14.93
2023-08-05T06:16:02.377Z,10.32
2023-08-05T06:17:34.168Z,10.20
2023-08-05T06:19:05.796Z,12.63
2023-08-05T06:20:37.930Z,11.85
2023-08-05T06:22:09.493Z,8.18
2023-08-05T06:23:41.054Z,14.77
2023-08-05T06:25:12.671Z,13.32
2023-08-05T06:26:44.218Z,12.13
2023-08-05T06:28:15.991Z,10.52
2023-08-05T06:29:47.734Z,10.98
2023-08-05T06:31:19.361Z,11.50
2023-08-05T06:32:51.211Z,10.95
2023-08-05T06:34:23.390Z,9.65
2023-08-05T06:35:56.038Z,11.43
2023-08-05T06:37:27.683Z,10.02
2023-08-05T06:38:59.364Z,9.93
2023-08-05T06:40:31.050Z,9.65
2023-08-05T06:42:02.855Z,10.45
2023-08-05T06:43:39.240Z,13.30
2023-08-05T06:45:11.393Z,11.45
2023-08-05T06:46:43.054Z,9.07
2023-08-05T06:48:14.741Z,10.38
2023-08-05T06:49:46.347Z,8.50
2023-08-05T06:51:17.931Z,13.02
2023-08-05T06:52:49.484Z,10.20
2023-08-05T06:54:22.561Z,11.80
2023-08-05T06:56:12.510Z,10.75
2023-08-05T06:57:46.196Z,11.82
2023-08-05T06:59:17.745Z,9.88
2023-08-05T07:00:53.479Z,13.02
2023-08-05T07:03:58.039Z,12.52
2023-08-05T07:05:30.531Z,9.23
2023-08-05T07:07:02.290Z,10.68
2023-08-05T07:08:33.821Z,8.20
2023-08-05T07:10:09.028Z,11.45
2023-08-05T07:11:40.742Z,10.05
2023-08-05T07:13:12.340Z,9.73
2023-08-05T07:14:46.129Z,10.57
2023-08-05T07:16:17.757Z,10.20
2023-08-05T07:17:49.424Z,9.35
2023-08-05T07:19:21.113Z,8.93
2023-08-05T07:20:53.426Z,8.38
2023-08-05T07:22:25.119Z,9.27
2023-08-05T07:23:56.698Z,10.43
2023-08-05T07:25:28.317Z,11.52
2023-08-05T07:26:59.957Z,9.02
2023-08-05T07:28:31.564Z,10.60
2023-08-05T07:30:03.366Z,10.57
2023-08-05T07:31:35.040Z,7.72
2023-08-05T07:33:10.643Z,8.95
2023-08-05T07:34:42.303Z,12.20
2023-08-05T07:36:16.643Z,8.88
2023-08-05T07:37:48.608Z,9.52
2023-08-05T07:39:20.630Z,9.60
2023-08-05T07:40:56.570Z,8.93
2023-08-05T07:42:28.972Z,10.15
2023-08-05T07:44:02.193Z,9.70
2023-08-05T07:45:37.062Z,7.95
2023-08-05T07:47:10.124Z,12.05
2023-08-05T07:48:43.381Z,9.35
2023-08-05T07:50:22.977Z,7.68
2023-08-05T07:51:55.138Z,10.05
2023-08-05T07:53:26.667Z,9.73
2023-08-05T07:54:59.418Z,11.45
2023-08-05T07:56:31.170Z,7.72
2023-08-05T07:58:04.077Z,11.57
2023-08-05T07:59:35.923Z,11.00
2023-08-05T08:01:08.334Z,9.25
2023-08-05T08:02:45.018Z,10.98
2023-08-05T08:04:16.779Z,8.82
2023-08-05T08:05:48.453Z,8.27
2023-08-05T08:07:20.070Z,9.07
2023-08-05T08:08:52.496Z,9.07
2023-08-05T08:10:26.334Z,12.60
2023-08-05T08:12:00.095Z,7.70
2023-08-05T08:13:31.804Z,9.43
2023-08-05T08:15:04.352Z,8.95
2023-08-05T08:16:36.009Z,8.52
2023-08-05T08:18:10.258Z,10.05
2023-08-05T08:19:41.972Z,9.40
2023-08-05T08:21:13.600Z,11.82
2023-08-05T08:22:45.172Z,9.48
2023-08-05T08:24:16.787Z,11.15
2023-08-05T08:25:48.460Z,7.20
2023-08-05T08:27:20.096Z,8.05
2023-08-05T08:28:51.951Z,8.30
2023-08-05T08:30:23.529Z,8.52
2023-08-05T08:31:55.314Z,14.15
2023-08-05T08:33:29.126Z,7.75
2023-08-05T08:35:00.827Z,10.80
2023-08-05T08:36:32.410Z,9.35
2023-08-05T08:38:04.025Z,10.25
2023-08-05T08:39:35.606Z,9.13
2023-08-05T08:41:07.253Z,8.98
2023-08-05T08:42:39.859Z,9.02
2023-08-05T08:44:12.920Z,8.20
2023-08-05T08:45:45.631Z,8.15
2023-08-05T08:47:18.429Z,8.52
2023-08-05T08:48:51.143Z,9.50
2023-08-05T08:50:23.195Z,9.07
2023-08-05T08:51:55.458Z,8.10
2023-08-05T08:53:27.502Z,8.88
2023-08-05T08:54:59.325Z,8.73
2023-08-05T08:56:31.908Z,7.60
2023-08-05T08:58:03.731Z,7.90
2023-08-05T08:59:35.297Z,7.32
2023-08-05T09:01:08.231Z,8.70
2023-08-05T09:02:40.112Z,7.30
2023-08-05T09:04:12.852Z,6.80
2023-08-05T09:05:47.309Z,8.75
2023-08-05T09:07:18.987Z,7.00
2023-08-05T09:08:51.588Z,6.28
2023-08-05T09:10:24.501Z,8.30
2023-08-05T09:11:56.854Z,8.25
2023-08-05T09:13:28.519Z,7.30
2023-08-05T09:15:00.187Z,9.77
2023-08-05T09:16:32.046Z,7.35
2023-08-05T09:18:08.952Z,5.95
2023-08-05T09:19:44.028Z,7.32
2023-08-05T09:21:28.767Z,9.57
2023-08-05T09:23:03.560Z,6.82
2023-08-05T09:24:35.375Z,6.45
2023-08-05T09:26:06.990Z,6.47
2023-08-05T09:27:48.017Z,7.47
2023-08-05T09:29:22.445Z,9.70
2023-08-05T09:30:54.292Z,5.70
2023-08-05T09:32:37.178Z,6.78
2023-08-05T09:34:09.690Z,6.50
2023-08-05T09:35:41.312Z,9.45
2023-08-05T09:37:14.670Z,5.63
2023-08-05T09:38:46.459Z,6.80
2023-08-05T09:40:27.338Z,6.57
2023-08-05T09:42:00.410Z,5.85
2023-08-05T09:43:39.310Z,7.80
2023-08-05T09:45:13.531Z,6.70
2023-08-05T09:46:49.326Z,5.88
2023-08-05T09:48:24.731Z,7.13
2023-08-05T09:49:57.497Z,8.68
2023-08-05T09:51:29.815Z,9.70
2023-08-05T09:53:04.946Z,7.07
2023-08-05T09:54:37.828Z,6.25
2023-08-05T09:56:11.461Z,5.35
2023-08-05T09:57:44.088Z,5.47
2023-08-05T09:59:17.213Z,7.28
2023-08-05T10:00:51.446Z,6.90
2023-08-05T10:02:26.912Z,5.20
2023-08-05T10:04:00.136Z,6.22
2023-08-05T10:05:31.929Z,7.47
2023-08-05T10:07:04.486Z,5.85
2023-08-05T10:08:37.501Z,5.15
2023-08-05T10:10:12.785Z,6.82
2023-08-05T10:11:44.734Z,9.10
2023-08-05T10:13:19.751Z,5.70
2023-08-05T10:14:53.172Z,6.72
2023-08-05T10:16:25.497Z,7.80
2023-08-05T10:17:58.454Z,5.20
2023-08-05T10:19:32.122Z,6.57
2023-08-05T10:21:08.653Z,5.63
2023-08-05T10:22:40.967Z,7.47
2023-08-05T10:24:12.554Z,4.70
2023-08-05T10:25:45.933Z,5.93
2023-08-05T10:27:17.657Z,5.63
2023-08-05T10:28:49.380Z,7.60
2023-08-05T10:30:21.090Z,5.65
2023-08-05T10:31:53.087Z,8.80
2023-08-05T10:33:28.029Z,5.57
2023-08-05T10:35:30.572Z,8.07
2023-08-05T10:37:03.036Z,8.60
2023-08-05T10:38:43.917Z,4.78
2023-08-05T10:40:38.084Z,6.72
2023-08-05T10:42:19.908Z,5.15
2023-08-05T10:43:51.666Z,7.78
2023-08-05T10:45:24.787Z,7.53
2023-08-05T10:46:56.394Z,7.65
2023-08-05T10:48:39.835Z,7.97
2023-08-05T10:50:15.357Z,8.90
2023-08-05T10:51:46.971Z,6.75
2023-08-05T10:53:18.697Z,6.05
2023-08-05T10:54:51.149Z,7.53
2023-08-05T10:56:38.882Z,6.93
2023-08-05T10:58:10.843Z,7.50
2023-08-05T10:59:58.803Z,5.43
2023-08-05T11:01:59.378Z,7.32
2023-08-05T11:03:33.624Z,6.57
2023-08-05T11:05:09.702Z,6.15
2023-08-05T11:06:41.762Z,6.82
2023-08-05T11:08:21.237Z,4.35
2023-08-05T11:09:55.811Z,5.78
2023-08-05T11:11:27.888Z,7.28
2023-08-05T11:13:00.297Z,5.80
2023-08-05T11:14:33.075Z,5.00
2023-08-05T11:16:04.714Z,6.20
2023-08-05T11:17:54.887Z,5.90
2023-08-05T11:19:26.530Z,7.10
2023-08-05T11:20:59.722Z,5.53
2023-08-05T11:22:36.778Z,6.65
2023-08-05T11:24:08.458Z,6.45
2023-08-05T11:25:40.034Z,6.70
2023-08-05T11:27:11.582Z,5.15
2023-08-05T11:28:47.061Z,8.05
2023-08-05T11:30:20.048Z,6.05
2023-08-05T11:31:52.725Z,5.18
2023-08-05T11:33:24.850Z,4.15
2023-08-05T11:35:02.720Z,6.13
2023-08-05T11:36:34.322Z,6.10
2023-08-05T11:38:05.908Z,5.18
2023-08-05T11:39:38.510Z,4.43
2023-08-05T11:41:10.922Z,5.38
2023-08-05T11:42:42.650Z,6.68
2023-08-05T11:44:18.403Z,4.18
2023-08-05T11:45:51.344Z,4.95
2023-08-05T11:47:22.963Z,5.88
2023-08-05T11:49:14.724Z,5.00
2023-08-05T11:50:46.763Z,6.18
2023-08-05T11:52:18.340Z,8.65
2023-08-05T11:53:49.901Z,6.85
2023-08-05T11:55:21.528Z,5.55
2023-08-05T11:56:53.356Z,5.40
2023-08-05T11:58:25.095Z,6.63
2023-08-05T12:00:05.898Z,4.75
2023-08-05T12:01:40.995Z,8.88
2023-08-05T12:03:13.244Z,5.93
2023-08-05T12:04:46.510Z,7.55
2023-08-05T12:06:20.385Z,9.35
2023-08-05T12:07:52.025Z,9.60
2023-08-05T12:09:23.608Z,7.68
2023-08-05T12:10:58.354Z,6.90
2023-08-05T12:12:29.952Z,6.97
2023-08-05T12:14:01.554Z,6.15
2023-08-05T12:15:33.156Z,6.32
2023-08-05T12:17:04.731Z,5.50
2023-08-05T12:18:43.148Z,4.95
2023-08-05T12:20:23.088Z,5.85
2023-08-05T12:21:54.689Z,6.57
2023-08-05T12:23:26.265Z,5.63
2023-08-05T12:24:57.820Z,6.80
2023-08-05T12:26:29.383Z,5.85
2023-08-05T12:28:04.915Z,6.88
2023-08-05T12:29:37.982Z,4.22
2023-08-05T12:31:09.762Z,5.43
2023-08-05T12:32:41.460Z,6.15
2023-08-05T12:34:13.043Z,7.10
2023-08-05T12:35:44.596Z,4.78
2023-08-05T12:37:16.188Z,4.70
2023-08-05T12:38:49.771Z,4.63
2023-08-05T12:40:21.527Z,4.97
2023-08-05T12:41:54.786Z,5.50
2023-08-05T12:43:26.389Z,6.03
2023-08-05T12:45:00.340Z,5.63
2023-08-05T12:46:31.926Z,5.65
2023-08-05T12:48:03.693Z,6.82
2023-08-05T12:49:37.242Z,7.30
2023-08-05T12:51:08.796Z,5.28
2023-08-05T12:52:40.410Z,9.75
2023-08-05T12:54:11.997Z,8.15
2023-08-05T12:55:43.583Z,5.38
2023-08-05T12:57:15.333Z,6.68
2023-08-05T12:58:46.970Z,6.65
2023-08-05T13:00:18.613Z,4.82
2023-08-05T13:01:50.249Z,8.43
2023-08-05T13:03:21.979Z,5.00
2023-08-05T13:04:53.657Z,6.15
2023-08-05T13:06:25.331Z,5.85
2023-08-05T13:07:57.053Z,6.60
2023-08-05T13:09:30.744Z,4.47
2023-08-05T13:11:02.280Z,8.13
2023-08-05T13:12:33.824Z,5.80
2023-08-05T13:14:05.534Z,4.00
2023-08-05T13:15:37.125Z,5.13
2023-08-05T13:17:08.764Z,5.93
2023-08-05T13:18:40.421Z,4.28
2023-08-05T13:20:12.227Z,5.18
2023-08-05T13:21:43.970Z,5.28
2023-08-05T13:23:15.577Z,4.97
2023-08-05T13:24:47.179Z,4.35
2023-08-05T13:26:19.000Z,4.50
2023-08-05T13:27:50.762Z,4.88
2023-08-05T13:29:22.344Z,4.85
2023-08-05T13:31:01.215Z,6.82
2023-08-05T13:32:32.883Z,6.22
2023-08-05T13:34:04.481Z,6.35
2023-08-05T13:35:36.117Z,4.88
2023-08-05T13:37:07.703Z,4.80
2023-08-05T13:38:39.505Z,5.25
2023-08-05T13:40:11.499Z,7.03
2023-08-05T13:41:43.125Z,6.00
2023-08-05T13:43:14.664Z,5.40
2023-08-05T13:44:46.281Z,4.70
2023-08-05T13:46:17.934Z,4.90
2023-08-05T13:47:52.304Z,4.28
2023-08-05T13:49:23.911Z,5.55
2023-08-05T13:51:02.829Z,6.90
2023-08-05T13:52:34.419Z,4.18
2023-08-05T13:54:06.854Z,4.20
2023-08-05T13:55:39.437Z,6.15
2023-08-05T13:57:10.979Z,7.22
2023-08-05T13:58:42.614Z,6.40
2023-08-05T14:00:14.333Z,8.98
2023-08-05T14:01:46.340Z,4.82
2023-08-05T14:03:18.005Z,4.53
2023-08-05T14:04:49.651Z,5.57
2023-08-05T14:06:21.196Z,5.32
2023-08-05T14:07:52.738Z,6.15
2023-08-05T14:09:24.254Z,5.10
2023-08-05T14:10:56.086Z,4.82
2023-08-05T14:12:27.644Z,5.32
2023-08-05T14:13:59.204Z,4.50
2023-08-05T14:15:33.888Z,5.00
2023-08-05T14:17:05.537Z,7.72
2023-08-05T14:18:37.185Z,6.85
2023-08-05T14:20:09.151Z,4.97
2023-08-05T14:21:40.827Z,9.77
2023-08-05T14:23:12.379Z,5.70
2023-08-05T14:24:43.961Z,8.80
2023-08-05T14:26:15.557Z,5.60
2023-08-05T14:27:49.224Z,5.60
2023-08-05T14:29:20.739Z,6.63
2023-08-05T14:30:52.285Z,9.18
2023-08-05T14:32:23.913Z,4.90
2023-08-05T14:33:55.481Z,5.45
2023-08-05T14:35:31.964Z,5.20
2023-08-05T14:37:03.634Z,5.03
2023-08-05T14:38:35.207Z,8.60
2023-08-05T14:40:07.877Z,7.53
2023-08-05T14:41:39.925Z,6.20
2023-08-05T14:43:11.560Z,6.80
2023-08-05T14:44:43.539Z,5.53
2023-08-05T14:46:15.221Z,5.97
2023-08-05T14:47:46.820Z,5.28
2023-08-05T14:49:18.476Z,5.82
2023-08-05T14:50:50.101Z,6.97
2023-08-05T14:52:21.670Z,5.45
2023-08-05T14:53:53.228Z,7.43
2023-08-05T14:55:24.776Z,5.50
2023-08-05T14:56:56.554Z,6.72
2023-08-05T14:58:28.294Z,5.57
2023-08-05T14:59:59.878Z,6.80
2023-08-05T15:01:32.145Z,5.05
2023-08-05T15:03:04.000Z,6.00
2023-08-05T15:04:35.781Z,5.90
2023-08-05T15:06:07.428Z,5.03
2023-08-05T15:07:39.088Z,7.47
2023-08-05T15:09:12.185Z,6.43
2023-08-05T15:10:43.776Z,5.20
2023-08-05T15:12:15.322Z,5.40
2023-08-05T15:13:48.322Z,5.70
2023-08-05T15:15:19.881Z,5.60
2023-08-05T15:16:51.485Z,7.20
2023-08-05T15:18:23.625Z,4.25
2023-08-05T15:19:55.348Z,6.15
2023-08-05T15:21:26.950Z,6.43
2023-08-05T15:22:58.521Z,5.43
2023-08-05T15:24:30.099Z,4.72
2023-08-05T15:26:02.987Z,5.45
2023-08-05T15:27:35.521Z,6.25
2023-08-05T15:29:07.160Z,5.50
2023-08-05T15:30:39.327Z,5.32
2023-08-05T15:32:10.999Z,8.23
2023-08-05T15:33:42.631Z,5.43
2023-08-05T15:35:14.356Z,4.72
2023-08-05T15:36:46.062Z,6.85
2023-08-05T15:38:17.889Z,7.05
2023-08-05T15:39:49.480Z,5.20
2023-08-05T15:41:22.670Z,6.05
2023-08-05T15:42:54.409Z,4.75
2023-08-05T15:44:25.938Z,4.72
2023-08-05T15:45:58.020Z,5.57
2023-08-05T15:47:29.848Z,5.40
2023-08-05T15:49:01.496Z,4.93
2023-08-05T15:50:36.094Z,5.03
2023-08-05T15:52:07.869Z,5.47
2023-08-05T15:53:39.382Z,5.40
2023-08-05T15:55:11.114Z,6.13
2023-08-05T15:56:42.663Z,6.75
2023-08-05T15:58:14.158Z,6.20
2023-08-05T15:59:45.994Z,6.88
2023-08-05T16:01:17.624Z,5.55
2023-08-05T16:02:49.234Z,7.72
2023-08-05T16:04:20.816Z,5.70
2023-08-05T16:06:00.273Z,4.88
2023-08-05T16:07:39.159Z,6.40
2023-08-05T16:09:11.113Z,6.78
2023-08-05T16:10:42.646Z,8.60
2023-08-05T16:12:14.379Z,6.22
2023-08-05T16:13:45.946Z,5.93
2023-08-05T16:15:17.632Z,6.25
2023-08-05T16:16:49.172Z,5.88
2023-08-05T16:18:20.773Z,6.75
2023-08-05T16:19:55.801Z,6.30
2023-08-05T16:21:27.487Z,8.82
2023-08-05T16:22:59.182Z,6.00
2023-08-05T16:24:30.767Z,5.38
2023-08-05T16:26:16.785Z,7.97
2023-08-05T16:27:48.353Z,7.28
2023-08-05T16:29:21.225Z,6.90
2023-08-05T16:30:53.635Z,7.07
2023-08-05T16:32:25.326Z,6.72
2023-08-05T16:33:57.311Z,6.07
2023-08-05T16:35:28.909Z,7.50
2023-08-05T16:37:00.727Z,7.35
2023-08-05T16:38:32.794Z,6.43
2023-08-05T16:40:05.117Z,6.97
2023-08-05T16:41:36.769Z,7.30
2023-08-05T16:43:08.281Z,9.52
2023-08-05T16:44:39.863Z,6.53
2023-08-05T16:46:11.623Z,8.55
2023-08-05T16:47:43.361Z,7.50
2023-08-05T16:49:15.328Z,7.55
2023-08-05T16:50:46.924Z,5.85
2023-08-05T16:52:18.503Z,9.32
2023-08-05T16:53:50.096Z,6.63
2023-08-05T16:55:23.192Z,6.13
2023-08-05T16:56:54.883Z,5.40
2023-08-05T16:58:26.548Z,7.88
2023-08-05T16:59:58.127Z,6.97
2023-08-05T17:01:29.688Z,5.95
2023-08-05T17:03:01.287Z,10.15
2023-08-05T17:04:32.888Z,6.53
2023-08-05T17:06:04.578Z,5.30
2023-08-05T17:07:36.229Z,8.40
2023-08-05T17:09:07.794Z,6.10
2023-08-05T17:10:39.388Z,6.75
2023-08-05T17:12:11.795Z,6.50
2023-08-05T17:13:43.391Z,6.10
2023-08-05T17:15:14.960Z,5.75
2023-08-05T17:16:46.562Z,6.15
2023-08-05T17:18:18.236Z,6.90
2023-08-05T17:19:49.809Z,6.82
2023-08-05T17:21:21.408Z,9.20
2023-08-05T17:22:52.964Z,5.22
2023-08-05T17:24:24.528Z,5.80
2023-08-05T17:25:58.085Z,6.90
2023-08-05T17:27:29.632Z,5.70
2023-08-05T17:29:01.285Z,5.47
2023-08-05T17:30:35.670Z,6.05
2023-08-05T17:32:08.034Z,7.97
2023-08-05T17:33:39.670Z,6.18
2023-08-05T17:35:11.254Z,5.68
2023-08-05T17:36:42.818Z,5.63
2023-08-05T17:38:14.422Z,6.22
2023-08-05T17:39:46.133Z,6.47
2023-08-05T17:41:17.720Z,4.78
2023-08-05T17:42:49.312Z,7.57
2023-08-05T17:44:20.881Z,6.05
2023-08-05T17:45:59.409Z,6.43
2023-08-05T17:47:31.160Z,5.90
2023-08-05T17:49:02.735Z,5.53
2023-08-05T17:50:34.491Z,6.68
2023-08-05T17:52:06.422Z,5.75
2023-08-05T17:53:38.090Z,6.70
2023-08-05T17:55:09.682Z,5.72
2023-08-05T17:56:42.022Z,7.00
2023-08-05T17:58:13.602Z,7.15
2023-08-05T17:59:45.262Z,7.68
2023-08-05T18:01:16.917Z,11.68
2023-08-05T18:02:48.517Z,11.57
2023-08-05T18:04:20.277Z,10.43
2023-08-05T18:05:58.929Z,10.88
2023-08-05T18:07:35.895Z,7.45
2023-08-05T18:09:07.578Z,8.23
2023-08-05T18:10:39.222Z,8.32
2023-08-05T18:12:10.847Z,11.65
2023-08-05T18:13:45.710Z,11.98
2023-08-05T18:15:17.234Z,9.70
2023-08-05T18:16:48.846Z,7.55
2023-08-05T18:18:20.388Z,5.82
2023-08-05T18:19:52.210Z,6.95
2023-08-05T18:21:25.625Z,6.13
2023-08-05T18:22:57.281Z,5.03
2023-08-05T18:24:28.781Z,5.15
2023-08-05T18:26:02.115Z,5.43
2023-08-05T18:27:33.996Z,7.95
2023-08-05T18:29:05.538Z,6.63
2023-08-05T18:30:37.548Z,9.48
2023-08-05T18:32:09.144Z,7.32
2023-08-05T18:33:40.708Z,8.70
2023-08-05T18:35:12.343Z,7.97
2023-08-05T18:36:43.920Z,5.40
2023-08-05T18:38:16.331Z,5.85
2023-08-05T18:39:48.023Z,6.95
2023-08-05T18:41:19.567Z,8.02
2023-08-05T18:42:51.134Z,5.32
2023-08-05T18:44:22.852Z,12.88
2023-08-05T18:45:57.549Z,7.10
2023-08-05T18:47:29.182Z,7.35
2023-08-05T18:49:03.492Z,6.13
2023-08-05T18:50:35.052Z,5.53
2023-08-05T18:52:06.946Z,7.82
2023-08-05T18:53:41.024Z,9.98
2023-08-05T18:55:12.679Z,7.18
2023-08-05T18:56:44.441Z,6.68
2023-08-05T18:58:16.376Z,9.32
2023-08-05T18:59:48.066Z,8.05
2023-08-05T19:01:19.788Z,11.00
2023-08-05T19:02:51.485Z,8.32
2023-08-05T19:04:23.106Z,8.68
2023-08-05T19:05:59.307Z,7.35
2023-08-05T19:07:32.669Z,6.88
2023-08-05T19:09:04.916Z,5.45
2023-08-05T19:10:40.783Z,6.25
2023-08-05T19:12:12.626Z,6.10
2023-08-05T19:13:44.603Z,7.22
2023-08-05T19:15:16.239Z,7.70
2023-08-05T19:16:47.924Z,7.45
2023-08-05T19:18:19.578Z,7.75
2023-08-05T19:19:51.230Z,6.45
2023-08-05T19:21:22.817Z,5.60
2023-08-05T19:22:54.836Z,5.60
2023-08-05T19:24:27.238Z,5.85
2023-08-05T19:26:03.582Z,5.28
2023-08-05T19:27:52.229Z,6.63
2023-08-05T19:29:25.761Z,5.90
2023-08-05T19:30:57.755Z,5.63
2023-08-05T19:32:29.459Z,5.88
2023-08-05T19:34:01.078Z,6.13
2023-08-05T19:35:32.712Z,7.80
2023-08-05T19:37:04.858Z,8.35
2023-08-05T19:38:36.482Z,6.28
2023-08-05T19:40:08.709Z,5.75
2023-08-05T19:41:40.408Z,5.32
2023-08-05T19:43:12.109Z,6.40
2023-08-05T19:44:47.821Z,6.20
2023-08-05T19:46:19.467Z,7.07
2023-08-05T19:47:51.252Z,7.30
2023-08-05T19:49:23.160Z,6.60
2023-08-05T19:51:10.950Z,6.78
2023-08-05T19:52:44.901Z,9.05
2023-08-05T19:54:16.447Z,6.88
2023-08-05T19:55:48.442Z,7.20
2023-08-05T19:57:20.022Z,6.05
2023-08-05T19:58:51.609Z,7.35
2023-08-05T20:00:23.163Z,6.45
2023-08-05T20:01:55.093Z,6.13
2023-08-05T20:03:26.930Z,6.68
2023-08-05T20:04:58.543Z,10.32
2023-08-05T20:06:30.119Z,8.23
2023-08-05T20:08:01.748Z,6.50
2023-08-05T20:09:33.380Z,8.10
2023-08-05T20:11:05.101Z,5.43
2023-08-05T20:12:36.811Z,9.32
2023-08-05T20:14:08.505Z,7.03
2023-08-05T20:15:40.736Z,8.43
2023-08-05T20:17:12.334Z,8.75
2023-08-05T20:18:45.443Z,8.68
2023-08-05T20:20:17.450Z,9.32
2023-08-05T20:21:50.289Z,9.52
2023-08-05T20:23:22.202Z,7.00